createdAt,value
2022-12-28T00:02:20.834Z,5.99
2022-12-28T00:04:48.483Z,5.99
2022-12-28T00:07:16.447Z,6.02
2022-12-28T00:09:44.205Z,6.01
2022-12-28T00:12:11.892Z,6.01
2022-12-28T00:14:39.729Z,6.02
2022-12-28T00:17:07.371Z,6.02
2022-12-28T00:19:35.321Z,6.05
2022-12-28T00:22:02.958Z,6.07
2022-12-28T00:24:31.130Z,6.09
2022-12-28T00:26:58.700Z,6.13
2022-12-28T00:29:26.267Z,6.15
2022-12-28T00:31:54.308Z,6.20
2022-12-28T00:34:22.003Z,6.23
2022-12-28T00:37:09.320Z,6.27
2022-12-28T00:39:37.467Z,6.31
2022-12-28T00:42:05.063Z,6.37
2022-12-28T00:44:33.049Z,6.44
2022-12-28T00:47:00.724Z,6.51
2022-12-28T00:49:28.419Z,6.56
2022-12-28T00:51:56.503Z,6.59
2022-12-28T00:54:24.670Z,6.61
2022-12-28T00:56:52.335Z,6.63
2022-12-28T00:59:19.912Z,6.65
2022-12-28T01:01:47.671Z,6.65
2022-12-28T01:04:15.384Z,6.66
2022-12-28T01:06:43.801Z,6.66
2022-12-28T01:09:11.410Z,6.66
2022-12-28T01:11:39.035Z,6.65
2022-12-28T01:14:06.632Z,6.65
2022-12-28T01:16:34.385Z,6.65
2022-12-28T01:19:02.433Z,6.61
2022-12-28T01:21:30.033Z,6.53
2022-12-28T01:23:57.606Z,6.45
2022-12-28T01:26:25.163Z,6.36
2022-12-28T01:28:54.236Z,6.28
2022-12-28T01:31:22.235Z,6.20
2022-12-28T01:33:49.834Z,6.12
2022-12-28T01:36:17.430Z,6.07
2022-12-28T01:38:45.075Z,6.02
2022-12-28T01:41:12.931Z,5.99
2022-12-28T01:43:40.907Z,5.97
2022-12-28T01:46:08.587Z,5.98
2022-12-28T01:48:36.144Z,5.98
2022-12-28T01:51:03.714Z,5.98
2022-12-28T01:53:31.338Z,6.01
2022-12-28T01:55:59.291Z,6.04
2022-12-28T01:58:26.872Z,6.03
2022-12-28T02:00:54.541Z,6.01
2022-12-28T02:03:22.337Z,6.00
2022-12-28T02:05:50.164Z,5.99
2022-12-28T02:08:18.090Z,6.01
2022-12-28T02:10:46.255Z,6.03
2022-12-28T02:13:14.264Z,6.07
2022-12-28T02:15:41.948Z,6.13
2022-12-28T02:18:09.586Z,6.16
2022-12-28T02:20:37.181Z,6.20
2022-12-28T02:23:04.785Z,6.24
2022-12-28T02:25:32.626Z,6.28
2022-12-28T02:28:00.411Z,6.33
2022-12-28T02:30:28.217Z,6.39
2022-12-28T02:32:56.268Z,6.46
2022-12-28T02:35:24.136Z,6.51
2022-12-28T02:37:51.726Z,6.52
2022-12-28T02:40:19.266Z,6.56
2022-12-28T02:42:47.165Z,6.60
2022-12-28T02:45:32.622Z,6.62
2022-12-28T02:48:22.862Z,6.66
2022-12-28T02:50:50.444Z,6.69
2022-12-28T02:53:17.997Z,6.69
2022-12-28T02:56:04.107Z,6.73
2022-12-28T02:58:31.670Z,6.75
2022-12-28T03:00:59.329Z,6.76
2022-12-28T03:03:27.222Z,6.77
2022-12-28T03:06:19.154Z,6.78
2022-12-28T03:08:47.216Z,6.76
2022-12-28T03:11:16.080Z,6.77
2022-12-28T03:13:47.145Z,6.77
2022-12-28T03:16:15.076Z,6.78
2022-12-28T03:19:00.343Z,6.79
2022-12-28T03:21:45.318Z,6.81
2022-12-28T03:24:30.182Z,6.83
2022-12-28T03:27:15.501Z,6.86
2022-12-28T03:30:00.382Z,6.90
2022-12-28T03:32:28.118Z,6.96
2022-12-28T03:34:55.671Z,6.99
2022-12-28T03:37:26.134Z,7.01
2022-12-28T03:39:53.719Z,7.00
2022-12-28T03:42:38.605Z,6.98
2022-12-28T03:48:03.216Z,7.05
2022-12-28T03:50:30.818Z,7.07
2022-12-28T03:52:58.420Z,7.07
2022-12-28T03:55:26.175Z,7.10
2022-12-28T03:57:54.249Z,7.13
2022-12-28T04:00:21.827Z,7.16
2022-12-28T04:02:49.524Z,7.18
2022-12-28T04:05:17.210Z,7.20
2022-12-28T04:07:45.008Z,7.24
2022-12-28T04:10:12.639Z,7.29
2022-12-28T04:12:40.586Z,7.34
2022-12-28T04:15:08.154Z,7.36
2022-12-28T04:17:35.743Z,7.40
2022-12-28T04:20:03.545Z,7.41
2022-12-28T04:22:31.149Z,7.43
2022-12-28T04:24:58.901Z,7.47
2022-12-28T04:27:26.526Z,7.48
2022-12-28T04:29:54.134Z,7.48
2022-12-28T04:32:21.842Z,7.47
2022-12-28T04:34:49.438Z,7.46
2022-12-28T04:37:17.004Z,7.44
2022-12-28T04:39:56.386Z,7.46
2022-12-28T04:42:24.773Z,7.48
2022-12-28T04:44:52.362Z,7.49
2022-12-28T04:47:19.943Z,7.50
2022-12-28T04:49:47.625Z,7.55
2022-12-28T04:52:15.224Z,7.58
2022-12-28T04:54:43.034Z,7.60
2022-12-28T04:57:10.648Z,7.64
2022-12-28T04:59:40.648Z,7.65
2022-12-28T05:02:08.745Z,7.68
2022-12-28T05:04:36.472Z,7.70
2022-12-28T05:07:04.091Z,7.73
2022-12-28T05:09:31.635Z,7.74
2022-12-28T05:11:59.644Z,7.76
2022-12-28T05:14:29.849Z,7.78
2022-12-28T05:16:59.969Z,7.83
2022-12-28T05:19:28.114Z,7.85
2022-12-28T05:21:55.686Z,7.85
2022-12-28T05:24:24.062Z,7.86
2022-12-28T05:26:51.689Z,7.85
2022-12-28T05:29:19.259Z,7.76
2022-12-28T05:31:46.887Z,7.65
2022-12-28T05:34:14.480Z,7.52
2022-12-28T05:36:43.516Z,7.44
2022-12-28T05:39:11.184Z,7.40
2022-12-28T05:41:38.825Z,7.36
2022-12-28T05:44:06.556Z,7.34
2022-12-28T05:46:34.204Z,7.34
2022-12-28T05:49:02.206Z,7.34
2022-12-28T05:51:29.785Z,7.37
2022-12-28T05:53:57.376Z,7.39
2022-12-28T05:56:25.009Z,7.45
2022-12-28T05:58:52.559Z,7.50
2022-12-28T06:01:20.554Z,7.54
2022-12-28T06:03:48.193Z,7.57
2022-12-28T06:06:15.784Z,7.62
2022-12-28T06:08:43.384Z,7.69
2022-12-28T06:11:11.020Z,7.72
2022-12-28T06:13:38.845Z,7.75
2022-12-28T06:16:06.446Z,7.77
2022-12-28T06:18:34.089Z,7.72
2022-12-28T06:21:01.855Z,7.68
2022-12-28T06:23:29.412Z,7.67
2022-12-28T06:25:57.440Z,7.68
2022-12-28T06:28:25.345Z,7.69
2022-12-28T06:30:53.129Z,7.72
2022-12-28T06:33:20.808Z,7.74
2022-12-28T06:35:48.374Z,7.74
2022-12-28T06:38:15.930Z,7.73
2022-12-28T06:43:31.142Z,7.72
2022-12-28T06:45:58.812Z,7.72
2022-12-28T06:48:26.793Z,7.73
2022-12-28T06:50:54.338Z,7.76
2022-12-28T06:53:21.950Z,7.75
2022-12-28T06:55:49.753Z,7.72
2022-12-28T06:58:17.531Z,7.69
2022-12-28T07:00:45.715Z,7.68
2022-12-28T07:03:13.388Z,7.67
2022-12-28T07:05:40.989Z,7.67
2022-12-28T07:08:12.535Z,7.65
2022-12-28T07:10:40.992Z,7.66
2022-12-28T07:13:08.948Z,7.67
2022-12-28T07:15:36.599Z,7.68
2022-12-28T07:18:04.544Z,7.68
2022-12-28T07:20:35.494Z,7.68
2022-12-28T07:23:07.754Z,7.68
2022-12-28T07:25:35.342Z,7.69
2022-12-28T07:28:02.923Z,7.69
2022-12-28T07:30:31.055Z,7.70
2022-12-28T07:32:59.741Z,7.69
2022-12-28T07:35:27.346Z,7.69
2022-12-28T07:37:54.951Z,7.70
2022-12-28T07:40:22.518Z,7.72
2022-12-28T07:42:50.469Z,7.74
2022-12-28T07:45:18.090Z,7.74
2022-12-28T07:47:45.670Z,7.73
2022-12-28T07:50:13.275Z,7.74
2022-12-28T07:52:40.887Z,7.75
2022-12-28T07:55:09.426Z,7.77
2022-12-28T07:57:37.364Z,7.81
2022-12-28T08:00:05.371Z,7.84
2022-12-28T08:02:32.989Z,7.89
2022-12-28T08:05:00.779Z,7.94
2022-12-28T08:07:28.682Z,7.98
2022-12-28T08:09:56.301Z,8.02
2022-12-28T08:12:23.937Z,8.06
2022-12-28T08:14:51.639Z,8.09
2022-12-28T08:17:21.326Z,8.13
2022-12-28T08:19:50.132Z,8.16
2022-12-28T08:22:18.101Z,8.21
2022-12-28T08:24:46.167Z,8.24
2022-12-28T08:27:13.795Z,8.26
2022-12-28T08:29:42.280Z,8.31
2022-12-28T08:32:09.918Z,8.33
2022-12-28T08:34:38.018Z,8.35
2022-12-28T08:37:06.399Z,8.38
2022-12-28T08:39:34.009Z,8.40
2022-12-28T08:42:01.735Z,8.42
2022-12-28T08:44:29.432Z,8.45
2022-12-28T08:46:58.259Z,8.47
2022-12-28T08:49:26.300Z,8.48
2022-12-28T08:51:54.142Z,8.51
2022-12-28T08:54:21.780Z,8.53
2022-12-28T08:56:50.105Z,8.55
2022-12-28T08:59:19.351Z,8.57
2022-12-28T09:01:47.593Z,8.58
2022-12-28T09:04:15.298Z,8.61
2022-12-28T09:06:42.980Z,8.63
2022-12-28T09:09:10.861Z,8.65
2022-12-28T09:11:38.762Z,8.68
2022-12-28T09:14:07.069Z,8.71
2022-12-28T09:16:34.736Z,8.72
2022-12-28T09:19:02.477Z,8.74
2022-12-28T09:21:30.300Z,8.76
2022-12-28T09:23:58.148Z,8.78
2022-12-28T09:26:26.245Z,8.80
2022-12-28T09:28:53.952Z,8.82
2022-12-28T09:31:21.723Z,8.83
2022-12-28T09:36:49.691Z,8.88
2022-12-28T09:39:17.907Z,8.90
2022-12-28T09:41:47.955Z,8.90
2022-12-28T09:44:15.667Z,8.95
2022-12-28T09:46:48.636Z,8.99
2022-12-28T09:49:16.942Z,9.02
2022-12-28T09:51:44.720Z,9.07
2022-12-28T09:54:12.385Z,9.10
2022-12-28T09:56:40.633Z,9.12
2022-12-28T09:59:08.414Z,9.16
2022-12-28T10:01:36.486Z,9.18
2022-12-28T10:04:04.585Z,9.19
2022-12-28T10:06:35.434Z,9.20
2022-12-28T10:09:03.270Z,9.23
2022-12-28T10:11:30.957Z,9.23
2022-12-28T10:13:59.223Z,9.26
2022-12-28T10:16:27.209Z,9.27
2022-12-28T10:18:55.040Z,9.31
2022-12-28T10:21:28.375Z,9.36
2022-12-28T10:26:47.977Z,9.47
2022-12-28T10:29:15.779Z,9.50
2022-12-28T10:31:44.032Z,9.52
2022-12-28T10:34:12.424Z,9.50
2022-12-28T10:36:41.285Z,9.52
2022-12-28T10:39:09.167Z,9.58
2022-12-28T10:41:37.540Z,9.61
2022-12-28T10:44:38.009Z,9.63
2022-12-28T10:46:55.147Z,9.65
2022-12-28T10:49:23.012Z,9.69
2022-12-28T10:51:50.721Z,9.72
2022-12-28T10:57:06.686Z,9.83
2022-12-28T10:59:34.557Z,9.90
2022-12-28T11:02:02.362Z,9.97
2022-12-28T11:03:21.812Z,9.78
2022-12-28T11:04:31.844Z,10.01
2022-12-28T11:07:00.614Z,10.06
2022-12-28T11:09:28.961Z,10.09
2022-12-28T11:11:56.865Z,10.11
2022-12-28T11:14:24.759Z,10.14
2022-12-28T11:16:53.453Z,10.16
2022-12-28T11:19:21.298Z,10.17
2022-12-28T11:21:49.867Z,10.20
2022-12-28T11:24:17.857Z,10.22
2022-12-28T11:26:45.947Z,10.27
2022-12-28T11:29:14.260Z,10.36
2022-12-28T11:31:42.385Z,10.44
2022-12-28T11:34:10.996Z,10.51
2022-12-28T11:36:38.838Z,10.54
2022-12-28T11:39:06.591Z,10.59
2022-12-28T11:41:34.941Z,10.60
2022-12-28T11:44:04.807Z,10.60
2022-12-28T11:46:32.923Z,10.67
2022-12-28T11:49:00.629Z,10.74
2022-12-28T11:51:28.847Z,10.73
2022-12-28T11:53:58.227Z,10.68
2022-12-28T11:56:26.044Z,10.64
2022-12-28T11:58:54.454Z,10.58
2022-12-28T12:01:22.174Z,10.57
2022-12-28T12:03:49.950Z,10.70
2022-12-28T12:06:18.087Z,10.84
2022-12-28T12:08:46.026Z,10.88
2022-12-28T12:11:14.150Z,10.85
2022-12-28T12:13:42.920Z,10.79
2022-12-28T12:16:10.801Z,10.76
2022-12-28T12:18:39.049Z,10.73
2022-12-28T12:21:13.304Z,10.70
2022-12-28T12:23:44.139Z,10.65
2022-12-28T12:26:12.288Z,10.65
2022-12-28T12:28:40.177Z,10.64
2022-12-28T12:31:08.110Z,10.60
2022-12-28T12:33:36.123Z,10.56
2022-12-28T12:36:04.503Z,10.52
2022-12-28T12:38:32.275Z,10.45
2022-12-28T12:41:00.584Z,10.41
2022-12-28T12:43:29.449Z,10.35
2022-12-28T12:45:57.326Z,10.31
2022-12-28T12:48:25.761Z,10.34
2022-12-28T12:50:54.591Z,10.38
2022-12-28T12:53:22.717Z,10.38
2022-12-28T12:55:50.667Z,10.38
2022-12-28T12:58:18.538Z,10.37
2022-12-28T13:00:48.837Z,10.34
2022-12-28T13:03:17.074Z,10.33
2022-12-28T13:05:45.159Z,10.31
2022-12-28T13:08:13.043Z,10.26
2022-12-28T13:10:41.164Z,10.17
2022-12-28T13:13:09.242Z,10.11
2022-12-28T13:15:37.008Z,10.01
2022-12-28T13:18:42.576Z,9.91
2022-12-28T13:20:53.063Z,9.80
2022-12-28T13:23:21.122Z,9.70
2022-12-28T13:25:48.993Z,9.62
2022-12-28T13:28:17.051Z,9.53
2022-12-28T13:30:45.222Z,9.48
2022-12-28T13:33:13.433Z,9.42
2022-12-28T13:35:41.262Z,9.35
2022-12-28T13:38:09.329Z,9.29
2022-12-28T13:40:37.503Z,9.24
2022-12-28T13:43:05.383Z,9.19
2022-12-28T13:45:33.326Z,9.14
2022-12-28T13:48:01.427Z,9.11
2022-12-28T13:50:29.137Z,9.08
2022-12-28T13:52:57.282Z,9.06
2022-12-28T13:55:25.666Z,9.05
2022-12-28T13:57:59.199Z,9.05
2022-12-28T14:00:28.226Z,9.06
2022-12-28T14:02:56.106Z,9.07
2022-12-28T14:05:24.163Z,9.07
2022-12-28T14:07:52.121Z,9.07
2022-12-28T14:10:19.938Z,9.07
2022-12-28T14:12:48.062Z,9.11
2022-12-28T14:15:15.957Z,9.16
2022-12-28T14:17:44.154Z,9.20
2022-12-28T14:20:11.901Z,9.24
2022-12-28T14:22:39.860Z,9.28
2022-12-28T14:25:08.257Z,9.32
2022-12-28T14:27:36.772Z,9.35
2022-12-28T14:30:04.950Z,9.37
2022-12-28T14:32:35.253Z,9.38
2022-12-28T14:35:07.018Z,9.41
2022-12-28T14:37:35.302Z,9.43
2022-12-28T14:40:03.280Z,9.46
2022-12-28T14:42:31.807Z,9.47
2022-12-28T14:45:02.324Z,9.49
2022-12-28T14:47:30.108Z,9.51
2022-12-28T14:49:58.465Z,9.53
2022-12-28T14:52:26.343Z,9.53
2022-12-28T14:54:54.356Z,9.54
2022-12-28T14:57:22.510Z,9.54
2022-12-28T14:59:50.911Z,9.54
2022-12-28T15:02:19.197Z,9.54
2022-12-28T15:04:47.404Z,9.54
2022-12-28T15:07:15.497Z,9.52
2022-12-28T15:09:45.382Z,9.48
2022-12-28T15:12:13.369Z,9.45
2022-12-28T15:14:42.169Z,9.42
2022-12-28T15:17:10.157Z,9.39
2022-12-28T15:19:38.228Z,9.36
2022-12-28T15:22:06.387Z,9.35
2022-12-28T15:24:34.733Z,9.33
2022-12-28T15:27:03.083Z,9.35
2022-12-28T15:32:19.384Z,9.35
2022-12-28T15:34:47.173Z,9.34
2022-12-28T15:37:15.588Z,9.35
2022-12-28T15:39:43.616Z,9.36
2022-12-28T15:42:11.834Z,9.39
2022-12-28T15:44:40.070Z,9.43
2022-12-28T15:47:08.316Z,9.45
2022-12-28T15:49:36.516Z,9.47
2022-12-28T15:52:04.326Z,9.50
2022-12-28T15:54:32.271Z,9.52
2022-12-28T15:57:00.388Z,9.54
2022-12-28T15:59:28.400Z,9.56
2022-12-28T16:01:56.730Z,9.59
2022-12-28T16:04:25.091Z,9.60
2022-12-28T16:06:53.003Z,9.62
2022-12-28T16:09:21.133Z,9.64
2022-12-28T16:11:54.863Z,9.64
2022-12-28T16:14:23.879Z,9.67
2022-12-28T16:16:51.833Z,9.65
2022-12-28T16:19:19.704Z,9.64
2022-12-28T16:21:48.034Z,9.65
2022-12-28T16:24:15.744Z,9.63
2022-12-28T16:26:44.348Z,9.64
2022-12-28T16:29:12.375Z,9.63
2022-12-28T16:31:40.388Z,9.64
2022-12-28T16:34:08.572Z,9.64
2022-12-28T16:36:36.755Z,9.64
2022-12-28T16:39:05.005Z,9.62
2022-12-28T16:41:36.553Z,9.61
2022-12-28T16:44:04.897Z,9.63
2022-12-28T16:46:33.010Z,9.64
2022-12-28T16:49:01.033Z,9.69
2022-12-28T16:51:29.564Z,9.72
2022-12-28T16:53:57.454Z,9.75
2022-12-28T16:56:25.260Z,9.77
2022-12-28T16:58:53.804Z,9.79
2022-12-28T17:01:21.754Z,9.79
2022-12-28T17:03:50.339Z,9.80
2022-12-28T17:06:18.661Z,9.80
2022-12-28T17:08:48.671Z,9.82
2022-12-28T17:11:18.516Z,9.82
2022-12-28T17:13:46.664Z,9.82
2022-12-28T17:16:15.196Z,9.83
2022-12-28T17:18:43.024Z,9.85
2022-12-28T17:21:10.995Z,9.87
2022-12-28T17:23:39.571Z,9.88
2022-12-28T17:26:07.648Z,9.90
2022-12-28T17:28:35.858Z,9.91
2022-12-28T17:31:03.822Z,9.91
2022-12-28T17:33:38.755Z,9.90
2022-12-28T17:36:07.728Z,9.83
2022-12-28T17:38:35.516Z,9.75
2022-12-28T17:41:03.994Z,9.65
2022-12-28T17:43:31.832Z,9.54
2022-12-28T17:45:59.711Z,9.44
2022-12-28T17:48:30.014Z,9.35
2022-12-28T17:50:59.272Z,9.28
2022-12-28T17:53:27.476Z,9.22
2022-12-28T17:55:55.357Z,9.16
2022-12-28T17:58:23.488Z,9.10
2022-12-28T18:00:51.881Z,9.07
2022-12-28T18:03:19.788Z,9.07
2022-12-28T18:05:48.189Z,9.06
2022-12-28T18:08:15.931Z,9.11
2022-12-28T18:10:43.804Z,9.12
2022-12-28T18:13:12.034Z,9.10
2022-12-28T18:15:40.318Z,9.08
2022-12-28T18:18:08.518Z,9.06
2022-12-28T18:20:36.453Z,9.05
2022-12-28T18:23:04.234Z,9.01
2022-12-28T18:25:32.408Z,9.00
2022-12-28T18:28:00.237Z,8.99
2022-12-28T18:30:28.464Z,8.99
2022-12-28T18:32:56.959Z,8.99
2022-12-28T18:35:27.051Z,8.99
2022-12-28T18:37:56.572Z,9.00
2022-12-28T18:40:24.663Z,9.00
2022-12-28T18:42:53.337Z,9.03
2022-12-28T18:45:21.146Z,9.04
2022-12-28T18:47:49.012Z,9.07
2022-12-28T18:50:18.053Z,9.08
2022-12-28T18:52:46.022Z,9.11
2022-12-28T18:55:14.280Z,9.10
2022-12-28T18:57:42.296Z,9.07
2022-12-28T19:00:13.409Z,9.02
2022-12-28T19:02:42.049Z,8.98
2022-12-28T19:05:10.135Z,8.94
2022-12-28T19:07:38.382Z,8.89
2022-12-28T19:10:16.246Z,8.87
2022-12-28T19:12:44.130Z,8.84
2022-12-28T19:15:12.152Z,8.83
2022-12-28T19:17:40.493Z,8.83
2022-12-28T19:20:08.365Z,8.81
2022-12-28T19:22:36.247Z,8.82
2022-12-28T19:25:04.435Z,8.81
2022-12-28T19:27:32.285Z,8.81
2022-12-28T19:30:00.454Z,8.79
2022-12-28T19:32:28.355Z,8.78
2022-12-28T19:34:56.246Z,8.77
2022-12-28T19:37:24.382Z,8.76
2022-12-28T19:39:57.532Z,8.75
2022-12-28T19:42:26.331Z,8.75
2022-12-28T19:44:54.326Z,8.74
2022-12-28T19:47:22.106Z,8.75
2022-12-28T19:49:50.229Z,8.75
2022-12-28T19:52:18.192Z,8.76
2022-12-28T19:54:47.018Z,8.78
2022-12-28T19:57:14.912Z,8.78
2022-12-28T19:59:42.864Z,8.80
2022-12-28T20:02:11.187Z,8.80
2022-12-28T20:04:39.745Z,8.81
2022-12-28T20:07:08.180Z,8.81
2022-12-28T20:09:38.595Z,8.82
2022-12-28T20:12:06.469Z,8.84
2022-12-28T20:14:34.829Z,8.84
2022-12-28T20:17:02.800Z,8.84
2022-12-28T20:19:30.605Z,8.85
2022-12-28T20:21:58.782Z,8.85
2022-12-28T20:24:26.700Z,8.86
2022-12-28T20:27:01.458Z,8.86
2022-12-28T20:29:29.804Z,8.87
2022-12-28T20:31:57.997Z,8.88
2022-12-28T20:34:25.885Z,8.89
2022-12-28T20:36:53.887Z,8.91
2022-12-28T20:39:21.682Z,8.92
2022-12-28T20:42:18.602Z,8.94
2022-12-28T20:44:46.294Z,8.98
2022-12-28T20:47:14.513Z,9.04
2022-12-28T20:49:42.771Z,9.14
2022-12-28T20:52:10.546Z,9.22
2022-12-28T20:54:38.306Z,9.31
2022-12-28T20:57:06.380Z,9.39
2022-12-28T20:59:34.254Z,9.43
2022-12-28T21:02:02.448Z,9.48
2022-12-28T21:04:30.680Z,9.54
2022-12-28T21:06:59.123Z,9.60
2022-12-28T21:09:27.306Z,9.64
2022-12-28T21:11:55.159Z,9.69
2022-12-28T21:14:23.072Z,9.73
2022-12-28T21:16:50.906Z,9.77
2022-12-28T21:19:19.563Z,9.78
2022-12-28T21:21:48.515Z,9.79
2022-12-28T21:24:16.322Z,9.80
2022-12-28T21:26:44.458Z,9.82
2022-12-28T21:29:12.458Z,9.82
2022-12-28T21:31:41.031Z,9.84
2022-12-28T21:34:08.831Z,9.84
2022-12-28T21:36:36.675Z,9.82
2022-12-28T21:39:04.704Z,9.82
2022-12-28T21:41:51.034Z,9.80
2022-12-28T21:44:19.684Z,9.79
2022-12-28T21:46:47.459Z,9.78
2022-12-28T21:49:15.697Z,9.74
2022-12-28T21:51:43.488Z,9.73
2022-12-28T21:54:11.570Z,9.69
2022-12-28T21:56:39.485Z,9.68
2022-12-28T21:59:07.316Z,9.63
2022-12-28T22:01:52.532Z,9.61
2022-12-28T22:04:38.172Z,9.61
2022-12-28T22:07:06.263Z,9.64
2022-12-28T22:09:51.152Z,9.69
2022-12-28T22:12:41.997Z,9.74
2022-12-28T22:15:27.359Z,9.75
2022-12-28T22:17:55.733Z,9.74
2022-12-28T22:20:23.490Z,9.74
2022-12-28T22:22:51.304Z,9.73
2022-12-28T22:25:19.241Z,9.73
2022-12-28T22:27:46.928Z,9.76
2022-12-28T22:30:14.941Z,9.80
2022-12-28T22:32:43.308Z,9.83
2022-12-28T22:35:11.063Z,9.88
2022-12-28T22:37:38.788Z,9.91
2022-12-28T22:40:06.876Z,9.94
2022-12-28T22:42:36.384Z,9.97
2022-12-28T22:45:04.159Z,10.01
2022-12-28T22:47:31.980Z,10.03
2022-12-28T22:49:59.651Z,10.01
2022-12-28T22:52:27.733Z,9.94
2022-12-28T22:54:57.002Z,9.85
2022-12-28T22:57:26.232Z,9.79
2022-12-28T22:59:54.008Z,9.73
2022-12-28T23:02:21.921Z,9.69
2022-12-28T23:04:50.097Z,9.65
2022-12-28T23:07:18.184Z,9.62
2022-12-28T23:09:45.897Z,9.60
2022-12-28T23:12:13.659Z,9.60
2022-12-28T23:14:59.686Z,9.63
2022-12-28T23:17:27.740Z,9.69
2022-12-28T23:20:13.016Z,9.76
2022-12-28T23:22:57.924Z,9.83
2022-12-28T23:25:43.553Z,9.91
2022-12-28T23:28:11.582Z,9.98
2022-12-28T23:30:39.957Z,10.04
2022-12-28T23:33:07.718Z,10.09
2022-12-28T23:35:35.818Z,10.12
2022-12-28T23:38:03.930Z,10.12
2022-12-28T23:40:31.987Z,10.10
2022-12-28T23:42:59.620Z,10.13
2022-12-28T23:45:27.399Z,10.19
2022-12-28T23:47:55.591Z,10.24
2022-12-28T23:50:23.642Z,10.29
2022-12-28T23:52:51.504Z,10.36
2022-12-28T23:55:19.236Z,10.40
2022-12-28T23:57:47.376Z,10.46
